Pagrindinis puslapis
METAR-TAF:

METAR-TAF

Oro uostai :

Burlengė, Švedija

platuma: 60-26N, ilguma: 015-31E, Aukštis: 145 m

Dabartinis oras

Ataskaita buvo paskelbta 30 minutes, ne 01:20 UTC
Vėjas 5 kt iš Vakarų
Temperatūra 4°C
Drėgmė 87%
Slėgis 1023 hPa
Matomumas 10 km arba daugiau

METAR: ESSD 190120Z AUTO 26005KT 9999 NCD 04/02 Q1023

Laikas: 03:50 (01:50 UTC)

Prognozė

Ataskaita buvo paskelbta 14 valandos ir 20 minutes, ne 11:30 UTC
Prognozė galioja nuo 18 metu 12 UTC su 18 metu 14 UTC
Vėjas 8 kt iš Vakarų
Matomumas 10 km arba daugiau
nėra debesų žemiau 1500 m ir nėra kamuolinių lietaus debesų

TAF: ESSD 181130Z 1812/1814 26008KT CAVOK

Orai ataskaitas ir orų prognozės (METAR, TAF).

turimą stotys yra geltonos ir raudonos taškus žemėlapyje.

Perkelti pele per norėdami pamatyti stoties vardą.

Tada spustelėkite, norėdami matyti oro stebėjimo ir prognozės.

Norėdami pakeisti žemėlapį: spustelėkite ant žalios mygtukų su juodo kryžiaus žemyn,; žalią mygtuką su brūkšneliu, jei norite nutolinti; arba žalių rodyklių gretimoms žemėlapius.


METAR-TAF: